地図

経路データ

SID SEASON NUMBER BASIN SUBBASIN NAME ISO_TIME NATURE LAT LON WMO_WIND WMO_PRES WMO_AGENCY TRACK_TYPE DIST2LAND LANDFALL IFLAG USA_AGENCY USA_ATCF_ID USA_LAT USA_LON USA_RECORD USA_STATUS USA_WIND USA_PRES USA_SSHS USA_R34_NE USA_R34_SE USA_R34_SW USA_R34_NW USA_R50_NE USA_R50_SE USA_R50_SW USA_R50_NW USA_R64_NE USA_R64_SE USA_R64_SW USA_R64_NW USA_POCI USA_ROCI USA_RMW USA_EYE TOKYO_LAT TOKYO_LON TOKYO_GRADE TOKYO_WIND TOKYO_PRES TOKYO_R50_DIR TOKYO_R50_LONG TOKYO_R50_SHORT TOKYO_R30_DIR TOKYO_R30_LONG TOKYO_R30_SHORT TOKYO_LAND CMA_LAT CMA_LON CMA_CAT CMA_WIND CMA_PRES HKO_LAT HKO_LON HKO_CAT HKO_WIND HKO_PRES NEWDELHI_LAT NEWDELHI_LON NEWDELHI_GRADE NEWDELHI_WIND NEWDELHI_PRES NEWDELHI_CI NEWDELHI_DP NEWDELHI_POCI REUNION_LAT REUNION_LON REUNION_TYPE REUNION_WIND REUNION_PRES REUNION_TNUM REUNION_CI REUNION_RMW REUNION_R34_NE REUNION_R34_SE REUNION_R34_SW REUNION_R34_NW REUNION_R50_NE REUNION_R50_SE REUNION_R50_SW REUNION_R50_NW REUNION_R64_NE REUNION_R64_SE REUNION_R64_SW REUNION_R64_NW BOM_LAT BOM_LON BOM_TYPE BOM_WIND BOM_PRES BOM_TNUM BOM_CI BOM_RMW BOM_R34_NE BOM_R34_SE BOM_R34_SW BOM_R34_NW BOM_R50_NE BOM_R50_SE BOM_R50_SW BOM_R50_NW BOM_R64_NE BOM_R64_SE BOM_R64_SW BOM_R64_NW BOM_ROCI BOM_POCI BOM_EYE BOM_POS_METHOD BOM_PRES_METHOD NADI_LAT NADI_LON NADI_CAT NADI_WIND NADI_PRES WELLINGTON_LAT WELLINGTON_LON WELLINGTON_WIND WELLINGTON_PRES DS824_LAT DS824_LON DS824_STAGE DS824_WIND DS824_PRES TD9636_LAT TD9636_LON TD9636_STAGE TD9636_WIND TD9636_PRES TD9635_LAT TD9635_LON TD9635_WIND TD9635_PRES TD9635_ROCI NEUMANN_LAT NEUMANN_LON NEUMANN_CLASS NEUMANN_WIND NEUMANN_PRES MLC_LAT MLC_LON MLC_CLASS MLC_WIND MLC_PRES USA_GUST BOM_GUST BOM_GUST_PER REUNION_GUST REUNION_GUST_PER USA_SEAHGT USA_SEARAD_NE USA_SEARAD_SE USA_SEARAD_SW USA_SEARAD_NW STORM_SPEED STORM_DIR
1973061S15173 1973 32 SP MM HENRIETTA 1973-03-02 00:00:00 TS -14.9000 172.600 main 537 537 O________OO_O_ jtwc_sh SH261973 -14.9000 172.600 -1 -14.9000 172.600 TC 35 -14.9000 172.600 2 -14.9000 172.600 TC 20 4 117
1973061S15173 1973 32 SP MM HENRIETTA 1973-03-02 03:00:00 TS -14.9984 172.799 main 554 546 P________PP_P_ SH261973 -15.0025 172.800 -1 -15.0025 172.800 TC 35 -14.9860 172.797 2 -15.0025 172.800 TC 22 4 117
1973061S15173 1973 32 SP MM HENRIETTA 1973-03-02 06:00:00 TS -15.0944 172.999 main 546 522 O________OP_O_ jtwc_sh SH261973 -15.1000 173.000 -1 -15.1000 173.000 TC 35 -15.0776 172.995 2 -15.1000 173.000 TC 25 4 116
1973061S15173 1973 32 SP MM HENRIETTA 1973-03-02 09:00:00 TS -15.1895 173.199 main 522 498 P________PP_P_ SH261973 -15.1925 173.200 -1 -15.1925 173.200 TC 35 -15.1804 173.196 2 -15.1925 173.200 TC 27 4 118
1973061S15173 1973 32 SP MM HENRIETTA 1973-03-02 12:00:00 TS -15.3000 173.400 main 498 474 O________OO_O_ jtwc_sh SH261973 -15.3000 173.400 -1 -15.3000 173.400 TC 35 -15.3000 173.400 2 -15.3000 173.400 TC 30 5 123
1973061S15173 1973 32 SP MM HENRIETTA 1973-03-02 15:00:00 TS -15.4418 173.602 main 474 444 P________PP_P_ SH261973 -15.4425 173.600 -1 -15.4425 173.600 TC 35 -15.4397 173.608 2 -15.4425 173.600 TC 32 5 127
1973061S15173 1973 32 SP MM HENRIETTA 1973-03-02 18:00:00 TS -15.5981 173.804 main 444 420 O________OP_O_ jtwc_sh SH261973 -15.6000 173.800 -1 -15.6000 173.800 TC 35 -15.5925 173.815 2 -15.6000 173.800 TC 35 5 128
1973061S15173 1973 32 SP MM HENRIETTA 1973-03-02 21:00:00 TS -15.7516 174.009 main 414 390 P________PP_P_ SH261973 -15.7500 174.008 -1 -15.7500 174.008 TC 35 -15.7491 174.014 2 -15.7575 174.007 TC 35 5 128
1973061S15173 1973 32 SP MM HENRIETTA 1973-03-03 00:00:00 TS -15.9000 174.200 main 390 366 O________OO_O_ jtwc_sh SH261973 -15.9000 174.200 -1 -15.9000 174.200 TC 35 -15.9000 174.200 2 -15.9000 174.200 TC 35 4 130
1973061S15173 1973 32 SP MM HENRIETTA 1973-03-03 03:00:00 TS -16.0357 174.358 main 366 346 P________PP_P_ SH261973 -16.0575 174.358 -1 -16.0575 174.358 TC 35 -16.0280 174.360 2 -16.0000 174.358 TC 37 4 132
1973061S15173 1973 32 SP MM HENRIETTA 1973-03-03 06:00:00 TS -16.1625 174.502 main 346 331 O________OP_O_ jtwc_sh SH261973 -16.2000 174.500 -1 -16.2000 174.500 TC 35 -16.1499 174.508 2 -16.1000 174.500 TC 40 4 131
1973061S15173 1973 32 SP MM HENRIETTA 1973-03-03 09:00:00 TS -16.2786 174.648 main 331 307 P________PP_P_ SH261973 -16.3000 174.650 -1 -16.3000 174.650 TC 35 -16.2718 174.651 2 -16.2425 174.643 TC 40 4 130
1973061S15173 1973 32 SP MM HENRIETTA 1973-03-03 12:00:00 TS -16.4000 174.800 main 307 283 O________OO_O_ jtwc_sh SH261973 -16.4000 174.800 -1 -16.4000 174.800 TC 35 -16.4000 174.800 2 -16.4000 174.800 TC 40 4 130
1973061S15173 1973 32 SP MM HENRIETTA 1973-03-03 15:00:00 TS -16.5374 174.972 main 283 264 P________PP_P_ SH261973 -16.5425 174.943 -1 -16.5425 174.943 TC 35 -16.5145 175.004 2 -16.5500 175.000 TC 42 4 130
1973061S15173 1973 32 SP MM HENRIETTA 1973-03-03 18:00:00 TS -16.6850 175.152 main 254 230 O________OP_O_ jtwc_sh SH261973 -16.7000 175.100 -1 -16.7000 175.100 TC 35 -16.6402 175.210 2 -16.7000 175.200 TC 45 5 127
1973061S15173 1973 32 SP MM HENRIETTA 1973-03-03 21:00:00 TS -16.8196 175.362 main 230 212 P________PP_P_ SH261973 -16.8276 175.337 -1 -16.8276 175.337 TC 35 -16.7957 175.385 2 -16.8275 175.387 TC 45 5 133
1973061S15173 1973 32 SP MM HENRIETTA 1973-03-04 00:00:00 TS -17.0000 175.500 main 212 196 O________OO_O_ jtwc_sh SH261973 -17.0000 175.500 -1 -17.0000 175.500 TC 35 -17.0000 175.500 2 -17.0000 175.500 TC 45 5 170
1973061S15173 1973 32 SP MM HENRIETTA 1973-03-04 03:00:00 TS -17.2691 175.446 main 206 198 P________PP_P_ SH261973 -17.2700 175.430 -1 -17.2700 175.430 TC 35 -17.2663 175.443 2 -17.2700 175.480 TC 45 6 195
1973061S15173 1973 32 SP MM HENRIETTA 1973-03-04 06:00:00 TS -17.5955 175.334 main 206 201 O________OP_O_ jtwc_sh SH261973 -17.6000 175.300 -1 -17.6000 175.300 TC 35 -17.5821 175.335 2 -17.6000 175.400 TC 45 7 196
1973061S15173 1973 32 SP MM HENRIETTA 1973-03-04 09:00:00 TS -17.9341 175.248 main 211 202 P________PP_P_ SH261973 -17.9349 175.225 -1 -17.9349 175.225 TC 35 -17.9317 175.259 2 -17.9349 175.283 TC 45 7 183
1973061S15173 1973 32 SP MM HENRIETTA 1973-03-04 12:00:00 TS -18.3000 175.300 main 203 181 O________OO_O_ jtwc_sh SH261973 -18.3000 175.300 -1 -18.3000 175.300 TC 35 -18.3000 175.300 2 -18.3000 175.300 TC 45 8 155
1973061S15173 1973 32 SP MM HENRIETTA 1973-03-04 15:00:00 TS -18.6924 175.620 main 186 168 P________PP_P_ SH261973 -18.7002 175.640 -1 -18.7002 175.640 TC 35 -18.6692 175.570 2 -18.7002 175.632 TC 45 11 137
1973061S15173 1973 32 SP MM HENRIETTA 1973-03-04 18:00:00 TS -19.0877 176.066 main 168 168 O________OP_O_ jtwc_sh SH261973 -19.1000 176.100 -1 -19.1000 176.100 TC 35 -19.0507 175.964 2 -19.1000 176.100 TC 45 11 133
1973061S15173 1973 32 SP MM HENRIETTA 1973-03-04 21:00:00 TS -19.4510 176.482 main 177 173 P________PP_P_ SH261973 -19.4574 176.500 -1 -19.4574 176.500 TC 35 -19.4318 176.426 2 -19.4574 176.500 TC 45 11 132
1973061S15173 1973 32 SP MM HENRIETTA 1973-03-05 00:00:00 TS -19.8000 176.900 main 193 193 O________OO_O_ jtwc_sh SH261973 -19.8000 176.900 -1 -19.8000 176.900 TC 35 -19.8000 176.900 2 -19.8000 176.900 TC 45 10 132
1973061S15173 1973 32 SP MM HENRIETTA 1973-03-05 03:00:00 TS -20.1538 177.297 main 221 218 P________PP_P_ SH261973 -20.1574 177.300 -1 -20.1574 177.300 TC 35 -20.1429 177.289 2 -20.1574 177.300 TC 45 10 133
1973061S15173 1973 32 SP MM HENRIETTA 1973-03-05 06:00:00 TS -20.4929 177.695 main 246 246 O________OP_O_ jtwc_sh SH261973 -20.5000 177.700 -1 -20.5000 177.700 TC 35 -20.4718 177.679 2 -20.5000 177.700 TC 45 10 131
1973061S15173 1973 32 SP MM HENRIETTA 1973-03-05 09:00:00 TS -20.8030 178.089 main 279 279 P________PP_P_ SH261973 -20.8074 178.093 -1 -20.8074 178.093 TC 35 -20.7898 178.079 2 -20.8074 178.093 TC 45 10 129
1973061S15173 1973 32 SP MM HENRIETTA 1973-03-05 12:00:00 TS -21.1000 178.500 main 314 314 O________OO_O_ jtwc_sh SH261973 -21.1000 178.500 -1 -21.1000 178.500 TC 35 -21.1000 178.500 2 -21.1000 178.500 TC 45 10 127
1973061S15173 1973 32 SP MM HENRIETTA 1973-03-05 15:00:00 TS -21.4007 178.942 main 354 354 P________PP_P_ SH261973 -21.3999 178.935 -1 -21.3999 178.935 TC 35 -21.4032 178.962 2 -21.3999 178.935 TC 42 10 125
1973061S15173 1973 32 SP MM HENRIETTA 1973-03-05 18:00:00 TS -21.7000 179.411 main 400 400 O________OP_O_ jtwc_sh SH261973 -21.7000 179.400 -1 -21.7000 179.400 TC 35 -21.7001 179.443 2 -21.7000 179.400 TC 40 11 124
1973061S15173 1973 32 SP MM HENRIETTA 1973-03-05 21:00:00 TS -21.9992 179.907 main 450 450 P________PP_P_ SH261973 -22.0000 179.900 -1 -22.0000 179.900 TC 35 -21.9969 179.928 2 -22.0000 179.900 TC 40 11 123
1973061S15173 1973 32 SP MM HENRIETTA 1973-03-06 00:00:00 TS -22.3000 180.400 main 502 502 O________OO_O_ jtwc_sh SH261973 -22.3000 -179.600 -1 -22.3000 180.400 TC 35 -22.3000 -179.600 2 -22.3000 -179.600 TC 40 11 124
1973061S15173 1973 32 SP MM HENRIETTA 1973-03-06 03:00:00 TS -22.5977 180.866 main 553 553 P________PP_P_ SH261973 -22.5924 -179.135 -1 -22.5924 -179.135 TC 35 -22.6137 -179.132 2 -22.5924 -179.135 TC 37 10 126
1973061S15173 1973 32 SP MM HENRIETTA 1973-03-06 06:00:00 TS -22.9088 181.304 main 601 601 O________OP_O_ jtwc_sh SH261973 -22.9000 -178.700 -1 -22.9000 181.300 TC 35 -22.9350 -178.682 2 -22.9000 -178.700 TC 35 10 129
1973061S15173 1973 32 SP MM HENRIETTA 1973-03-06 09:00:00 TS -23.2478 181.731 main 650 650 P________PP_P_ SH261973 -23.2425 -178.270 -1 -23.2425 -178.270 TC 35 -23.2638 -178.266 2 -23.2425 -178.270 TC 35 10 133
1973061S15173 1973 32 SP MM HENRIETTA 1973-03-06 12:00:00 TS -23.6000 182.100 main 709 709 O________OO_O_ jtwc_sh SH261973 -23.6000 -177.900 -1 -23.6000 182.100 TC 35 -23.6000 -177.900 2 -23.6000 -177.900 TC 35 9 140
1973061S15173 1973 32 SP MM HENRIETTA 1973-03-06 15:00:00 TS -23.9539 182.376 main 763 763 P________PP_P_ SH261973 -23.9498 -177.627 -1 -23.9498 -177.627 TC 35 -23.9663 -177.615 2 -23.9498 -177.627 TC 35 8 147
1973061S15173 1973 32 SP MM HENRIETTA 1973-03-06 18:00:00 TS -24.3091 182.606 main 802 802 O________OP_O_ jtwc_sh SH261973 -24.3000 -177.400 -1 -24.3000 182.600 TC 35 -24.3363 -177.376 2 -24.3000 -177.400 TC 35 8 150
1973061S15173 1973 32 SP MM HENRIETTA 1973-03-06 21:00:00 TS -24.6707 182.839 main 851 851 P________PP_P_ SH261973 -24.6649 -177.165 -1 -24.6649 -177.165 TC 35 -24.6883 -177.150 2 -24.6649 -177.165 TC 35 8 147
1973061S15173 1973 32 SP MM HENRIETTA 1973-03-07 00:00:00 TS -25.0000 183.100 main 895 895 O________OO_O_ jtwc_sh SH261973 -25.0000 -176.900 -1 -25.0000 183.100 TC 35 -25.0000 -176.900 2 -25.0000 -176.900 TC 35 8 139
1973061S15173 1973 32 SP MM HENRIETTA 1973-03-07 03:00:00 TS -25.2739 183.426 main 939 939 P________PP_P_ SH261973 -25.2800 -176.565 -1 -25.2800 -176.565 TC 30 -25.2556 -176.601 2 -25.2800 -176.565 TC 32 8 128
1973061S15173 1973 32 SP MM HENRIETTA 1973-03-07 06:00:00 TS -25.4910 183.785 main 980 980 O________OP_O_ jtwc_sh SH261973 -25.5000 -176.200 -1 -25.5000 183.800 TC 25 -25.4639 -176.258 2 -25.5000 -176.200 TC 30 8 121
1973061S15173 1973 32 SP MM HENRIETTA 1973-03-07 09:00:00 TS -25.6589 184.144 main 1015 1015 P________PP_P_ SH261973 -25.6651 -175.845 -1 -25.6651 -175.845 TC 25 -25.6402 -175.887 2 -25.6651 -175.845 TC 27 7 116
1973061S15173 1973 32 SP MM HENRIETTA 1973-03-07 12:00:00 TS -25.8000 184.500 main 1047 O________OO_O_ jtwc_sh SH261973 -25.8000 -175.500 -1 -25.8000 184.500 TC 25 -25.8000 -175.500 6 -25.8000 -175.500 TC 25 7 114

デジタル台風データ・検索

IBTrACS Databaseについて

本データベースは、米国NOAAが公開する1842年以降の世界の熱帯低気圧のベストトラックデータアーカイブInternational Best Track Archive for Climate Stewardship (IBTrACS)を、ウェブで閲覧しやすい形式に変換したものです。

最終更新日:2021-12-08